Time;durP1;ratioP1;P1;durP2;ratioP2;P2;SDS_P1;SDS_P2;PMS_P1;PMS_P2;Temp;Humidity;BMP_temperature;BMP_pressure;BME280_temperature;BME280_humidity;BME280_pressure;Samples;Min_cycle;Max_cycle;Signal;HPM_P1;HPM_P2
2022/10/21 00:01:05;;;;;;;15.15;10.98;;;14.60;92.20;;;;;;5005035;28;20438;-67
2022/10/21 00:03:30;;;;;;;15.00;10.82;;;14.70;92.10;;;;;;4999173;28;20054;-66
2022/10/21 00:05:56;;;;;;;15.05;11.52;;;14.70;92.10;;;;;;5011920;28;20404;-65
2022/10/21 00:08:22;;;;;;;14.30;10.27;;;14.70;92.10;;;;;;5012005;28;20033;-65
2022/10/21 00:10:53;;;;;;;17.52;12.25;;;14.70;92.20;;;;;;5010659;28;20072;-65
2022/10/21 00:13:20;;;;;;;15.05;10.57;;;14.70;92.40;;;;;;4996465;28;20092;-66
2022/10/21 00:15:59;;;;;;;13.65;10.40;;;14.70;92.20;;;;;;5010328;28;20088;-67
2022/10/21 00:18:24;;;;;;;11.63;8.90;;;14.70;92.20;;;;;;5011577;28;20549;-66
2022/10/21 00:20:50;;;;;;;15.43;10.18;;;14.80;92.10;;;;;;5011619;28;20118;-66
2022/10/21 00:23:15;;;;;;;14.20;10.88;;;14.70;92.20;;;;;;5011502;28;20061;-67
2022/10/21 00:25:41;;;;;;;13.82;10.10;;;14.70;92.20;;;;;;5004733;28;20362;-66
2022/10/21 00:28:06;;;;;;;13.45;9.32;;;14.70;92.30;;;;;;5009346;28;20484;-65
2022/10/21 00:30:32;;;;;;;12.45;9.60;;;14.80;92.20;;;;;;5004818;28;20040;-65
2022/10/21 00:32:58;;;;;;;11.88;8.85;;;14.80;92.20;;;;;;5011787;28;20014;-67
2022/10/21 00:35:23;;;;;;;11.48;9.65;;;14.80;92.20;;;;;;5010563;28;20419;-66
2022/10/21 00:37:49;;;;;;;15.75;9.93;;;14.90;92.10;;;;;;5008445;28;20503;-65
2022/10/21 00:40:15;;;;;;;14.23;10.57;;;14.90;92.10;;;;;;5011131;28;20033;-67
2022/10/21 00:42:40;;;;;;;13.27;9.32;;;14.90;92.00;;;;;;5011698;28;20034;-67
2022/10/21 00:45:06;;;;;;;13.15;10.60;;;14.90;92.00;;;;;;5011357;28;20030;-66
2022/10/21 00:47:43;;;;;;;14.30;10.57;;;14.90;92.00;;;;;;5010685;28;20637;-66
2022/10/21 00:50:47;;;;;;;13.10;9.60;;;14.90;92.10;;;;;;5009953;28;20030;-66
2022/10/21 00:53:14;;;;;;;16.48;11.40;;;14.90;92.10;;;;;;5002463;28;20156;-65
2022/10/21 00:55:47;;;;;;;13.00;9.63;;;14.90;92.10;;;;;;5010652;28;20033;-66
2022/10/21 00:58:14;;;;;;;10.15;7.93;;;14.90;92.10;;;;;;4994823;28;20101;-66
2022/10/21 01:00:39;;;;;;;11.25;8.43;;;15.00;92.00;;;;;;5021392;28;20453;-66
2022/10/21 01:03:05;;;;;;;10.85;9.23;;;14.90;92.00;;;;;;5012264;28;20053;-68
2022/10/21 01:05:32;;;;;;;12.40;9.75;;;15.00;92.00;;;;;;5010073;28;20030;-67
2022/10/21 01:07:57;;;;;;;11.40;9.32;;;15.00;92.00;;;;;;5010096;28;20508;-67
2022/10/21 01:10:23;;;;;;;12.35;9.80;;;15.00;92.00;;;;;;5009794;28;20025;-67
2022/10/21 01:12:59;;;;;;;13.32;9.30;;;15.00;92.00;;;;;;5007944;28;20022;-67
2022/10/21 01:15:38;;;;;;;12.70;9.50;;;14.90;92.00;;;;;;5001436;28;20057;-66
2022/10/21 01:18:23;;;;;;;13.35;9.65;;;14.90;92.10;;;;;;5009325;28;20038;-67
2022/10/21 01:21:08;;;;;;;13.73;9.70;;;14.90;92.10;;;;;;5010048;28;20017;-67
2022/10/21 01:24:08;;;;;;;12.50;8.68;;;14.90;92.00;;;;;;5007102;28;20030;-67
2022/10/21 01:27:16;;;;;;;11.60;7.95;;;14.90;92.00;;;;;;5000219;28;20488;-68
2022/10/21 01:30:12;;;;;;;10.02;7.47;;;14.90;92.00;;;;;;5003947;28;20736;-67
2022/10/21 01:33:10;;;;;;;10.88;8.23;;;14.90;92.00;;;;;;5015686;28;20100;-67
2022/10/21 01:35:42;;;;;;;9.43;7.25;;;14.90;91.90;;;;;;5009880;28;20092;-66
2022/10/21 01:38:32;;;;;;;13.18;9.13;;;15.00;91.90;;;;;;5010084;28;20026;-66
2022/10/21 01:41:39;;;;;;;13.82;9.07;;;14.90;91.90;;;;;;5010383;28;20022;-65
2022/10/21 01:44:26;;;;;;;11.77;8.98;;;14.90;91.90;;;;;;5003611;28;20038;-66
2022/10/21 01:46:58;;;;;;;13.40;9.45;;;14.80;92.00;;;;;;4995594;28;20018;-66
2022/10/21 01:49:37;;;;;;;12.65;9.43;;;14.90;92.00;;;;;;5009574;28;20060;-67
2022/10/21 01:52:04;;;;;;;13.63;9.68;;;14.80;92.00;;;;;;5010068;28;20073;-66
2022/10/21 01:54:37;;;;;;;11.10;8.63;;;14.80;92.10;;;;;;5009095;28;20028;-66
2022/10/21 01:57:06;;;;;;;13.48;9.57;;;14.80;92.10;;;;;;5010005;28;20037;-65
2022/10/21 01:59:32;;;;;;;13.23;9.52;;;14.80;92.10;;;;;;5001980;28;20084;-64
2022/10/21 02:02:01;;;;;;;16.80;12.40;;;14.80;92.10;;;;;;5003224;28;20025;-66
2022/10/21 02:04:29;;;;;;;14.35;11.35;;;14.80;92.20;;;;;;5009412;28;20077;-65
2022/10/21 02:06:55;;;;;;;17.25;11.80;;;14.80;92.30;;;;;;5009945;28;20026;-66
2022/10/21 02:09:20;;;;;;;18.63;13.82;;;14.80;92.30;;;;;;5006489;28;20106;-67
2022/10/21 02:11:49;;;;;;;13.90;10.57;;;14.80;92.40;;;;;;5005508;28;20022;-65
2022/10/21 02:14:24;;;;;;;15.52;10.90;;;14.80;92.40;;;;;;5009762;28;20018;-67
2022/10/21 02:16:51;;;;;;;14.35;11.43;;;14.80;92.40;;;;;;5011616;28;20061;-67
2022/10/21 02:19:19;;;;;;;11.93;8.93;;;14.80;92.40;;;;;;5013402;28;20029;-65
2022/10/21 02:21:46;;;;;;;12.23;9.25;;;14.90;92.40;;;;;;5014374;28;20033;-66
2022/10/21 02:24:39;;;;;;;12.23;8.60;;;14.90;92.30;;;;;;5011430;28;20018;-65
2022/10/21 02:27:05;;;;;;;13.20;9.23;;;14.90;92.30;;;;;;5010045;28;20528;-65
2022/10/21 02:29:37;;;;;;;13.40;9.90;;;14.90;92.30;;;;;;5013423;28;20029;-65
2022/10/21 02:32:08;;;;;;;;;;;14.80;92.20;;;;;;4998457;28;20034;-65
2022/10/21 02:34:50;;;;;;;14.05;9.82;;;14.80;92.20;;;;;;5009531;28;19924;-65
2022/10/21 02:37:28;;;;;;;15.00;9.40;;;14.80;92.30;;;;;;5009560;28;20130;-65
2022/10/21 02:40:07;;;;;;;11.88;8.48;;;14.80;92.40;;;;;;5005610;28;20026;-65
2022/10/21 02:42:38;;;;;;;13.52;9.90;;;14.80;92.40;;;;;;5012694;28;20034;-65
2022/10/21 02:45:05;;;;;;;12.10;9.07;;;14.70;92.30;;;;;;5008814;28;20025;-67
2022/10/21 02:47:30;;;;;;;10.52;8.23;;;14.80;92.40;;;;;;4997175;28;20049;-65
2022/10/21 02:49:56;;;;;;;11.57;8.63;;;14.80;92.40;;;;;;5005958;28;20129;-64
2022/10/21 02:52:21;;;;;;;14.25;9.60;;;14.80;92.30;;;;;;5009133;28;20209;-64
2022/10/21 02:54:47;;;;;;;11.38;7.70;;;14.70;92.30;;;;;;5010119;28;20512;-66
2022/10/21 02:57:12;;;;;;;15.48;10.30;;;14.70;92.40;;;;;;4994444;28;20076;-67
2022/10/21 02:59:38;;;;;;;12.98;9.10;;;14.70;92.40;;;;;;5010801;28;20160;-66
2022/10/21 03:02:04;;;;;;;13.60;9.60;;;14.70;92.40;;;;;;5017245;28;20080;-67
2022/10/21 03:04:29;;;;;;;13.05;9.40;;;14.70;92.50;;;;;;5013031;28;20105;-67
2022/10/21 03:06:55;;;;;;;12.57;9.85;;;14.60;92.40;;;;;;5013586;28;20488;-64
2022/10/21 03:09:20;;;;;;;14.85;9.93;;;14.70;92.50;;;;;;5012006;28;20165;-67
2022/10/21 03:11:46;;;;;;;14.10;10.68;;;14.60;92.50;;;;;;5013168;28;20029;-66
2022/10/21 03:14:12;;;;;;;15.18;10.65;;;14.60;92.40;;;;;;5013113;28;20468;-67
2022/10/21 03:16:37;;;;;;;16.92;11.43;;;14.70;92.40;;;;;;5012397;28;20034;-64
2022/10/21 03:19:03;;;;;;;13.15;9.57;;;14.70;92.40;;;;;;5010851;28;20040;-66
2022/10/21 03:21:28;;;;;;;14.32;9.63;;;14.70;92.40;;;;;;5006485;28;20034;-66
2022/10/21 03:23:54;;;;;;;12.45;9.00;;;14.70;92.30;;;;;;5012540;28;20030;-65
2022/10/21 03:26:19;;;;;;;11.73;8.63;;;14.70;92.60;;;;;;5012554;28;20037;-66
2022/10/21 03:28:45;;;;;;;14.35;9.45;;;14.70;92.30;;;;;;5014488;28;20472;-68
2022/10/21 03:31:10;;;;;;;13.00;9.43;;;14.80;92.20;;;;;;5011850;28;20030;-67
2022/10/21 03:33:36;;;;;;;11.82;9.38;;;14.70;92.20;;;;;;5013122;28;20029;-65
2022/10/21 03:36:01;;;;;;;13.38;8.98;;;14.70;92.10;;;;;;5012876;28;20109;-66
2022/10/21 03:38:27;;;;;;;13.77;8.85;;;14.70;92.20;;;;;;5013148;28;20401;-67
2022/10/21 03:40:53;;;;;;;12.27;9.30;;;14.70;92.20;;;;;;5013508;28;20041;-66
2022/10/21 03:43:18;;;;;;;13.07;8.88;;;14.70;92.20;;;;;;5010258;28;20030;-66
2022/10/21 03:45:44;;;;;;;15.05;10.05;;;14.70;92.10;;;;;;5011809;28;20026;-67
2022/10/21 03:48:09;;;;;;;12.55;9.38;;;14.60;92.20;;;;;;5009056;28;20026;-67
2022/10/21 03:50:35;;;;;;;10.23;7.93;;;14.70;92.20;;;;;;5011470;28;20030;-66
2022/10/21 03:53:00;;;;;;;11.00;8.30;;;14.70;92.20;;;;;;5012671;28;20089;-67
2022/10/21 03:55:26;;;;;;;14.20;9.75;;;14.60;92.20;;;;;;5012228;28;20477;-66
2022/10/21 03:57:52;;;;;;;12.43;8.60;;;14.60;92.20;;;;;;5012375;28;20033;-66
2022/10/21 04:00:18;;;;;;;14.52;9.93;;;14.60;92.20;;;;;;5011793;28;20117;-67
2022/10/21 04:02:44;;;;;;;14.77;10.43;;;14.50;92.30;;;;;;5012437;28;20026;-68
2022/10/21 04:05:10;;;;;;;14.10;9.20;;;14.50;92.30;;;;;;5000403;28;20030;-68
2022/10/21 04:07:35;;;;;;;12.20;9.32;;;14.50;92.30;;;;;;4995425;28;20038;-68
2022/10/21 04:10:01;;;;;;;12.27;8.95;;;14.50;92.30;;;;;;5008960;28;20093;-67
2022/10/21 04:12:26;;;;;;;11.48;9.00;;;14.50;92.30;;;;;;5010509;28;20050;-67
2022/10/21 04:14:52;;;;;;;14.15;10.13;;;14.50;92.30;;;;;;5011739;28;20108;-66
2022/10/21 04:17:17;;;;;;;14.88;9.10;;;14.50;92.20;;;;;;5012255;28;20113;-67
2022/10/21 04:19:43;;;;;;;12.45;9.38;;;14.50;92.20;;;;;;5011324;28;20408;-67
2022/10/21 04:22:09;;;;;;;14.77;9.77;;;14.50;92.20;;;;;;5012065;28;20088;-67
2022/10/21 04:24:34;;;;;;;13.38;9.07;;;14.40;92.20;;;;;;5011020;28;20034;-67
2022/10/21 04:27:00;;;;;;;12.43;9.32;;;14.40;92.30;;;;;;5011765;28;20034;-67
2022/10/21 04:29:25;;;;;;;12.60;9.20;;;14.40;92.30;;;;;;5011725;28;20104;-66
2022/10/21 04:31:51;;;;;;;13.90;10.15;;;14.40;92.30;;;;;;5012827;28;20045;-66
2022/10/21 04:34:16;;;;;;;15.13;10.55;;;14.30;92.30;;;;;;5011236;28;20043;-66
2022/10/21 04:36:42;;;;;;;13.18;9.50;;;14.30;92.40;;;;;;5010997;28;20030;-66
2022/10/21 04:39:07;;;;;;;12.73;8.23;;;14.30;92.70;;;;;;5010401;28;20029;-66
2022/10/21 04:41:33;;;;;;;12.65;9.50;;;14.20;92.40;;;;;;5011278;28;20037;-66
2022/10/21 04:43:59;;;;;;;11.20;8.60;;;14.20;92.50;;;;;;5012941;28;20030;-66
2022/10/21 04:46:25;;;;;;;11.07;8.80;;;14.30;92.50;;;;;;5006786;28;20680;-67
2022/10/21 04:48:50;;;;;;;13.13;8.93;;;14.30;92.50;;;;;;5007195;28;20030;-67
2022/10/21 04:51:16;;;;;;;12.93;9.43;;;14.30;92.40;;;;;;5002065;28;20370;-66
2022/10/21 04:53:42;;;;;;;12.50;9.15;;;14.30;92.40;;;;;;5004111;28;20373;-65
2022/10/21 04:56:07;;;;;;;15.10;9.93;;;14.30;92.40;;;;;;5004528;28;20026;-66
2022/10/21 04:58:33;;;;;;;13.77;9.82;;;14.30;92.40;;;;;;5009408;28;20034;-67
2022/10/21 05:00:58;;;;;;;14.45;9.98;;;14.30;92.40;;;;;;5019023;28;20025;-66
2022/10/21 05:03:24;;;;;;;12.65;8.80;;;14.30;92.30;;;;;;5012973;28;20018;-67
2022/10/21 05:05:51;;;;;;;11.45;7.82;;;14.30;92.30;;;;;;5031242;28;20095;-66
2022/10/21 05:08:18;;;;;;;14.05;8.38;;;14.30;92.30;;;;;;5012996;28;20407;-65
2022/10/21 05:10:43;;;;;;;14.95;10.40;;;14.20;92.30;;;;;;5010652;28;20033;-66
2022/10/21 05:13:09;;;;;;;13.68;9.38;;;14.30;92.30;;;;;;5009446;28;20032;-67
2022/10/21 05:15:35;;;;;;;11.55;8.25;;;14.30;92.30;;;;;;4992271;28;20031;-67
2022/10/21 05:18:00;;;;;;;10.93;7.57;;;14.20;92.20;;;;;;5004349;28;20030;-68
2022/10/21 05:20:26;;;;;;;12.90;8.38;;;14.20;92.20;;;;;;5011787;28;20083;-66
2022/10/21 05:22:52;;;;;;;10.75;7.47;;;14.20;92.20;;;;;;5011322;28;20396;-67
2022/10/21 05:25:18;;;;;;;8.98;6.97;;;14.30;92.20;;;;;;5009099;28;20392;-66
2022/10/21 05:27:44;;;;;;;11.07;7.55;;;14.30;92.20;;;;;;5004218;28;20021;-67
2022/10/21 05:30:10;;;;;;;9.40;7.30;;;14.20;92.10;;;;;;5008400;28;20037;-66
2022/10/21 05:32:36;;;;;;;13.15;9.05;;;14.30;92.10;;;;;;5008471;28;20025;-65
2022/10/21 05:35:02;;;;;;;9.45;6.70;;;14.20;92.10;;;;;;5017901;28;20026;-66
2022/10/21 05:37:27;;;;;;;8.93;6.78;;;14.30;92.10;;;;;;5009586;28;20025;-64
2022/10/21 05:39:53;;;;;;;9.70;6.97;;;14.30;92.10;;;;;;5011001;28;20037;-66
2022/10/21 05:42:18;;;;;;;10.02;6.35;;;14.30;92.00;;;;;;5008424;28;20034;-65
2022/10/21 05:44:44;;;;;;;10.98;7.63;;;14.30;92.00;;;;;;5005620;28;20503;-66
2022/10/21 05:47:09;;;;;;;8.90;6.78;;;14.30;91.90;;;;;;5009829;28;20049;-66
2022/10/21 05:49:35;;;;;;;10.48;7.72;;;14.30;91.90;;;;;;5006914;28;20041;-66
2022/10/21 05:52:01;;;;;;;9.30;6.93;;;14.30;91.90;;;;;;5004324;28;20389;-65
2022/10/21 05:54:27;;;;;;;8.98;7.25;;;14.30;91.90;;;;;;5010524;28;20437;-66
2022/10/21 05:56:55;;;;;;;9.10;6.97;;;14.30;91.90;;;;;;5005656;28;20022;-67
2022/10/21 05:59:21;;;;;;;9.23;6.43;;;14.30;91.90;;;;;;5006840;28;20057;-64
2022/10/21 06:01:47;;;;;;;7.97;6.20;;;14.30;91.80;;;;;;5005982;28;20022;-66
2022/10/21 06:04:12;;;;;;;8.82;6.25;;;14.30;91.80;;;;;;5000439;28;20032;-66
2022/10/21 06:06:38;;;;;;;8.63;6.03;;;14.40;91.80;;;;;;5003912;28;20392;-66
2022/10/21 06:09:04;;;;;;;9.65;6.70;;;14.40;91.70;;;;;;5027285;28;20111;-66
2022/10/21 06:11:30;;;;;;;7.97;6.25;;;14.30;91.70;;;;;;5004727;28;20025;-66
2022/10/21 06:13:56;;;;;;;7.72;5.55;;;14.30;91.70;;;;;;5008411;28;20025;-66
2022/10/21 06:16:21;;;;;;;8.00;6.35;;;14.40;91.70;;;;;;5005259;28;20065;-65
2022/10/21 06:18:47;;;;;;;7.75;5.97;;;14.30;91.60;;;;;;5006080;28;20025;-68
2022/10/21 06:21:13;;;;;;;7.60;5.45;;;14.40;91.70;;;;;;4999793;28;20522;-66
2022/10/21 06:23:38;;;;;;;8.45;6.05;;;14.40;91.70;;;;;;5009232;28;20041;-65
2022/10/21 06:26:12;;;;;;;7.90;5.70;;;14.40;91.60;;;;;;4998929;28;20026;-66
2022/10/21 06:28:39;;;;;;;7.30;5.68;;;14.40;91.60;;;;;;5012808;28;20022;-66
2022/10/21 06:31:07;;;;;;;8.73;5.95;;;14.40;91.60;;;;;;5005884;28;20088;-67
2022/10/21 06:33:33;;;;;;;8.60;5.88;;;14.40;91.60;;;;;;5006810;28;20018;-67
2022/10/21 06:35:58;;;;;;;8.95;5.72;;;14.40;91.50;;;;;;5005968;28;20401;-68
2022/10/21 06:38:24;;;;;;;8.57;5.47;;;14.40;91.50;;;;;;5007546;28;20034;-66
2022/10/21 06:40:51;;;;;;;9.30;6.30;;;14.50;91.50;;;;;;5008009;28;20033;-68
2022/10/21 06:43:17;;;;;;;6.30;5.25;;;14.50;91.50;;;;;;5004685;28;20109;-67
2022/10/21 06:45:43;;;;;;;10.57;5.85;;;14.50;91.50;;;;;;4999384;28;20057;-68
2022/10/21 06:48:08;;;;;;;7.13;5.70;;;14.50;91.70;;;;;;4998898;28;20026;-66
2022/10/21 06:50:36;;;;;;;7.32;5.60;;;14.50;91.40;;;;;;5000315;28;20038;-66
2022/10/21 06:53:02;;;;;;;8.00;6.03;;;14.60;91.40;;;;;;5000288;28;20033;-67
2022/10/21 06:55:27;;;;;;;8.35;6.10;;;14.70;91.40;;;;;;5006927;28;20523;-66
2022/10/21 06:57:53;;;;;;;8.57;6.18;;;14.70;91.30;;;;;;5008677;28;20049;-67
2022/10/21 07:00:18;;;;;;;7.05;5.35;;;14.70;91.20;;;;;;5007588;28;20088;-66
2022/10/21 07:02:44;;;;;;;7.97;5.68;;;14.80;91.10;;;;;;5010181;28;20040;-66
2022/10/21 07:05:09;;;;;;;10.15;6.35;;;14.90;91.10;;;;;;5012704;28;20022;-65
2022/10/21 07:07:35;;;;;;;7.90;5.72;;;14.90;91.00;;;;;;5012646;28;20026;-67
2022/10/21 07:10:01;;;;;;;9.40;6.38;;;15.00;90.90;;;;;;5012286;28;20022;-66
2022/10/21 07:12:27;;;;;;;10.13;7.32;;;14.90;90.90;;;;;;5012747;28;20530;-66
2022/10/21 07:14:53;;;;;;;7.97;5.72;;;15.00;90.90;;;;;;5011545;28;20030;-67
2022/10/21 07:17:19;;;;;;;9.30;6.55;;;15.00;90.90;;;;;;5012654;28;20523;-66
2022/10/21 07:19:45;;;;;;;9.40;6.75;;;15.00;90.80;;;;;;5002376;28;20496;-66
2022/10/21 07:22:12;;;;;;;9.05;6.30;;;15.00;90.80;;;;;;5009823;28;20103;-67
2022/10/21 07:24:37;;;;;;;7.63;6.07;;;15.10;90.80;;;;;;5012397;28;20484;-66
2022/10/21 07:27:03;;;;;;;8.88;6.45;;;15.00;90.80;;;;;;5011709;28;20029;-67
2022/10/21 07:29:29;;;;;;;8.13;5.70;;;15.00;90.80;;;;;;5012029;28;20427;-67
2022/10/21 07:31:55;;;;;;;10.95;6.45;;;15.00;90.80;;;;;;5012976;28;20022;-66
2022/10/21 07:34:21;;;;;;;10.85;7.65;;;15.00;90.80;;;;;;5012307;28;20426;-66
2022/10/21 07:36:48;;;;;;;9.65;7.13;;;15.00;90.90;;;;;;5008431;28;20026;-66
2022/10/21 07:39:16;;;;;;;11.73;7.45;;;15.00;90.90;;;;;;5010634;28;20105;-66
2022/10/21 07:41:44;;;;;;;10.48;6.90;;;15.00;90.90;;;;;;5011420;28;20025;-66
2022/10/21 07:44:11;;;;;;;9.27;6.85;;;15.00;90.90;;;;;;5011591;28;20101;-67
2022/10/21 07:46:42;;;;;;;10.40;7.07;;;15.00;91.00;;;;;;5006158;28;20479;-66
2022/10/21 07:49:08;;;;;;;10.93;7.05;;;15.00;91.00;;;;;;5006185;28;20026;-67
2022/10/21 07:51:34;;;;;;;7.68;6.10;;;15.00;90.90;;;;;;5010011;28;20026;-67
2022/10/21 07:54:01;;;;;;;9.35;6.78;;;15.10;91.00;;;;;;5018727;28;20032;-67
2022/10/21 07:56:35;;;;;;;9.63;7.70;;;15.10;90.90;;;;;;5003315;28;20030;-67
2022/10/21 07:59:03;;;;;;;12.43;8.50;;;15.10;90.90;;;;;;5009256;28;20026;-67
2022/10/21 08:01:29;;;;;;;10.70;7.63;;;15.00;90.90;;;;;;5011014;28;20405;-66
2022/10/21 08:03:55;;;;;;;9.38;6.22;;;15.10;90.90;;;;;;5006761;28;20029;-67
2022/10/21 08:06:22;;;;;;;9.50;7.30;;;15.10;90.90;;;;;;5002287;28;20034;-67
2022/10/21 08:08:48;;;;;;;9.93;7.63;;;15.20;90.90;;;;;;4996498;28;20512;-66
2022/10/21 08:11:25;;;;;;;10.18;7.40;;;15.20;90.80;;;;;;4998979;28;20022;-66
2022/10/21 08:13:50;;;;;;;13.38;8.55;;;15.30;90.80;;;;;;5004570;28;20022;-67
2022/10/21 08:16:16;;;;;;;10.90;7.45;;;15.30;90.70;;;;;;4996925;28;20114;-67
2022/10/21 08:18:41;;;;;;;8.10;6.18;;;15.30;90.70;;;;;;5007678;28;20160;-67
2022/10/21 08:21:07;;;;;;;9.70;7.55;;;15.40;90.60;;;;;;5002531;28;20018;-67
2022/10/21 08:23:32;;;;;;;10.55;7.60;;;15.40;90.50;;;;;;4999896;28;20014;-67
2022/10/21 08:25:59;;;;;;;9.02;6.70;;;15.50;90.50;;;;;;5006532;28;20026;-66
2022/10/21 08:28:27;;;;;;;9.52;7.28;;;15.50;90.40;;;;;;5005120;28;20377;-67
2022/10/21 08:30:53;;;;;;;10.75;7.10;;;15.50;90.40;;;;;;5005945;28;20624;-66
2022/10/21 08:33:18;;;;;;;9.13;6.35;;;15.60;90.40;;;;;;5005250;28;20029;-67
2022/10/21 08:35:44;;;;;;;9.13;5.88;;;15.70;90.30;;;;;;5007958;28;20362;-67
2022/10/21 08:38:10;;;;;;;8.02;5.38;;;15.80;90.20;;;;;;5008195;28;20025;-67
2022/10/21 08:40:47;;;;;;;7.40;5.15;;;15.80;90.10;;;;;;5006955;28;20041;-66
2022/10/21 08:43:22;;;;;;;8.10;6.28;;;15.90;90.00;;;;;;4999689;28;20026;-67
2022/10/21 08:45:53;;;;;;;8.48;6.03;;;15.90;89.90;;;;;;5006505;28;20025;-67
2022/10/21 08:48:30;;;;;;;9.30;6.35;;;15.90;89.90;;;;;;5007504;28;20381;-67
2022/10/21 08:50:56;;;;;;;10.60;5.88;;;15.90;89.80;;;;;;5004768;28;20021;-67
2022/10/21 08:53:26;;;;;;;7.35;5.57;;;15.90;89.90;;;;;;5010671;28;20018;-67
2022/10/21 08:56:00;;;;;;;9.20;6.93;;;16.00;89.90;;;;;;4997253;28;20092;-67
2022/10/21 08:58:25;;;;;;;8.93;6.35;;;16.00;89.60;;;;;;5004126;28;20030;-66
2022/10/21 09:01:09;;;;;;;8.95;6.55;;;15.90;89.80;;;;;;5003827;28;20084;-66
2022/10/21 09:04:11;;;;;;;9.75;6.20;;;15.90;90.00;;;;;;5004236;28;20578;-67
2022/10/21 09:06:46;;;;;;;;;;;16.00;90.00;;;;;;5009014;28;20043;-67
2022/10/21 09:09:32;;;;;;;9.68;6.80;;;16.00;89.90;;;;;;5006103;28;20071;-67
2022/10/21 09:12:16;;;;;;;13.45;7.75;;;16.00;90.00;;;;;;5008589;28;20022;-67
2022/10/21 09:15:06;;;;;;;8.77;7.10;;;15.90;90.10;;;;;;5004360;28;20017;-66
2022/10/21 09:18:22;;;;;;;11.45;7.25;;;15.90;90.10;;;;;;5005257;28;20052;-67
2022/10/21 09:21:08;;;;;;;8.52;6.53;;;15.90;90.10;;;;;;4993293;28;20038;-67
2022/10/21 09:23:41;;;;;;;8.77;5.30;;;16.00;90.20;;;;;;5012569;28;20039;-68
2022/10/21 09:26:32;;;;;;;9.45;6.85;;;16.00;90.20;;;;;;5011596;28;20116;-67
2022/10/21 09:29:19;;;;;;;12.48;7.55;;;16.00;90.50;;;;;;5001669;28;20031;-66
2022/10/21 09:31:45;;;;;;;7.32;5.90;;;16.00;90.20;;;;;;5009319;28;20100;-67
2022/10/21 09:34:34;;;;;;;7.32;5.70;;;16.00;90.30;;;;;;5004939;28;20065;-66
2022/10/21 09:37:03;;;;;;;9.85;7.07;;;16.10;90.30;;;;;;5005042;28;20030;-66
2022/10/21 09:40:00;;;;;;;9.60;7.03;;;16.10;90.20;;;;;;5009238;28;20034;-66
2022/10/21 09:42:26;;;;;;;8.10;5.53;;;16.20;90.20;;;;;;5007450;28;20021;-67
2022/10/21 09:44:51;;;;;;;8.13;5.50;;;16.20;90.20;;;;;;5003857;28;20028;-67
2022/10/21 09:47:23;;;;;;;5.32;4.15;;;16.30;90.10;;;;;;4993570;28;20030;-66
2022/10/21 09:49:59;;;;;;;6.78;4.80;;;16.30;90.00;;;;;;5009290;28;20026;-67
2022/10/21 09:52:33;;;;;;;8.07;5.90;;;16.40;90.00;;;;;;5009478;28;20025;-66
2022/10/21 09:54:59;;;;;;;6.88;5.00;;;16.40;89.80;;;;;;5004527;28;20589;-66
2022/10/21 09:57:47;;;;;;;6.18;4.30;;;16.50;89.90;;;;;;5005226;28;20096;-66
2022/10/21 10:00:12;;;;;;;8.48;4.95;;;16.50;89.80;;;;;;4996801;28;20028;-67
2022/10/21 10:02:42;;;;;;;6.50;4.38;;;16.50;89.70;;;;;;5009279;28;20485;-67
2022/10/21 10:05:40;;;;;;;8.32;5.35;;;16.50;89.70;;;;;;5006970;28;20040;-66
2022/10/21 10:08:41;;;;;;;12.77;6.28;;;16.50;89.70;;;;;;5005835;28;20069;-67
2022/10/21 10:11:09;;;;;;;7.07;4.90;;;16.50;89.80;;;;;;5007655;28;20424;-67
2022/10/21 10:13:44;;;;;;;7.03;4.60;;;16.40;89.80;;;;;;5009031;28;20026;-67
2022/10/21 10:16:30;;;;;;;6.85;4.30;;;16.50;90.00;;;;;;5005165;28;20034;-67
2022/10/21 10:19:20;;;;;;;6.35;4.20;;;16.50;90.00;;;;;;5003458;28;20436;-68
2022/10/21 10:22:05;;;;;;;6.03;3.90;;;16.60;90.10;;;;;;5000818;28;20029;-68
2022/10/21 10:24:32;;;;;;;8.07;4.32;;;16.70;90.00;;;;;;5008268;28;20028;-67
2022/10/21 10:27:10;;;;;;;7.25;4.55;;;16.70;90.00;;;;;;5009578;28;20084;-68
2022/10/21 10:29:36;;;;;;;7.85;4.45;;;16.70;90.00;;;;;;5008623;28;20109;-67
2022/10/21 10:32:02;;;;;;;5.30;4.10;;;16.80;90.00;;;;;;5009600;28;20097;-68
2022/10/21 10:34:33;;;;;;;6.28;4.30;;;16.90;89.90;;;;;;5007448;28;20108;-67
2022/10/21 10:37:13;;;;;;;6.32;4.38;;;16.90;90.00;;;;;;5009459;28;20029;-68
2022/10/21 10:39:39;;;;;;;5.13;3.92;;;17.00;90.00;;;;;;5010308;28;20030;-67
2022/10/21 10:42:06;;;;;;;5.32;3.88;;;17.00;89.90;;;;;;5012509;28;20698;-67
2022/10/21 10:44:38;;;;;;;7.85;4.63;;;17.00;89.90;;;;;;5015155;28;20026;-67
2022/10/21 10:47:06;;;;;;;6.25;3.83;;;17.10;89.90;;;;;;5011669;28;20149;-67
2022/10/21 10:49:38;;;;;;;8.75;4.40;;;17.10;90.00;;;;;;5016238;28;20480;-66
2022/10/21 10:52:09;;;;;;;7.28;4.50;;;17.10;90.00;;;;;;5010425;28;20509;-67
2022/10/21 10:54:37;;;;;;;6.38;4.32;;;17.20;90.10;;;;;;5007525;28;20038;-67
2022/10/21 10:57:15;;;;;;;6.55;3.92;;;17.20;90.00;;;;;;5006455;28;20062;-67
2022/10/21 10:59:48;;;;;;;6.60;5.35;;;17.30;90.00;;;;;;5007832;28;20535;-67
2022/10/21 11:02:27;;;;;;;8.57;4.90;;;17.30;89.90;;;;;;5007725;28;20026;-67
2022/10/21 11:05:26;;;;;;;6.20;3.95;;;17.30;89.90;;;;;;5007503;28;20136;-67
2022/10/21 11:07:59;;;;;;;6.32;4.10;;;17.30;89.90;;;;;;4996728;28;20075;-66
2022/10/21 11:10:45;;;;;;;7.38;4.47;;;17.30;89.90;;;;;;5001419;28;20072;-68
2022/10/21 11:13:17;;;;;;;8.93;5.82;;;17.30;90.00;;;;;;4999446;28;20046;-67
2022/10/21 11:16:01;;;;;;;9.93;4.90;;;17.30;90.00;;;;;;5004741;28;20065;-68
2022/10/21 11:18:50;;;;;;;8.52;5.70;;;17.30;90.10;;;;;;5004112;28;20400;-68
2022/10/21 11:21:28;;;;;;;8.10;5.40;;;17.30;90.10;;;;;;5013202;28;20112;-67
2022/10/21 11:24:13;;;;;;;8.55;5.53;;;17.30;90.20;;;;;;5001470;28;20037;-67
2022/10/21 11:26:55;;;;;;;5.00;3.95;;;17.30;90.20;;;;;;5006823;28;20369;-67
2022/10/21 11:29:50;;;;;;;6.15;4.43;;;17.40;90.20;;;;;;5012108;28;20100;-66
2022/10/21 11:32:21;;;;;;;8.10;5.22;;;17.50;90.10;;;;;;5008465;28;20044;-67
2022/10/21 11:34:49;;;;;;;7.95;5.15;;;17.40;89.80;;;;;;5010234;28;20496;-67
2022/10/21 11:37:43;;;;;;;7.25;4.63;;;17.40;89.80;;;;;;5007474;28;20381;-67
2022/10/21 11:40:26;;;;;;;6.40;4.13;;;17.40;89.90;;;;;;5005528;28;20157;-66
2022/10/21 11:42:55;;;;;;;6.25;4.95;;;17.50;89.80;;;;;;5009558;28;20032;-66
2022/10/21 11:45:32;;;;;;;7.10;4.93;;;17.50;89.80;;;;;;5007306;28;20034;-66
2022/10/21 11:48:16;;;;;;;6.43;4.53;;;17.60;89.60;;;;;;5007295;28;20033;-67
2022/10/21 11:50:55;;;;;;;8.18;5.10;;;17.70;89.70;;;;;;5010181;28;20032;-66
2022/10/21 11:53:38;;;;;;;7.20;4.40;;;17.80;89.20;;;;;;5008423;28;20092;-66
2022/10/21 11:56:18;;;;;;;6.00;4.75;;;17.90;89.20;;;;;;5010344;28;20022;-68
2022/10/21 11:59:19;;;;;;;7.93;5.68;;;18.00;88.80;;;;;;5010194;28;20060;-68
2022/10/21 12:02:10;;;;;;;6.43;4.60;;;18.00;88.70;;;;;;5007893;28;20061;-67
2022/10/21 12:04:58;;;;;;;6.75;4.32;;;18.20;88.60;;;;;;5009790;28;20388;-66
2022/10/21 12:07:44;;;;;;;11.65;5.90;;;18.40;88.50;;;;;;5010972;28;20037;-68
2022/10/21 12:10:31;;;;;;;9.43;5.45;;;18.50;88.00;;;;;;5010488;28;21834;-67
2022/10/21 12:13:06;;;;;;;7.95;5.13;;;18.50;87.40;;;;;;5011514;28;20131;-68
2022/10/21 12:15:40;;;;;;;7.35;4.65;;;18.60;87.20;;;;;;5011305;28;20044;-67
2022/10/21 12:18:16;;;;;;;5.65;4.18;;;18.70;87.40;;;;;;5007952;28;20096;-67
2022/10/21 12:20:45;;;;;;;10.00;6.20;;;19.00;87.00;;;;;;5007382;28;20037;-68
2022/10/21 12:23:14;;;;;;;9.55;5.50;;;19.00;86.00;;;;;;5014631;28;20037;-67
2022/10/21 12:25:56;;;;;;;7.93;4.38;;;19.10;85.50;;;;;;5006589;28;20053;-68
2022/10/21 12:28:26;;;;;;;6.18;4.30;;;19.20;85.20;;;;;;5005824;28;20128;-67
2022/10/21 12:30:58;;;;;;;6.55;4.30;;;19.30;84.70;;;;;;5002322;28;20018;-67
2022/10/21 12:33:37;;;;;;;7.30;4.93;;;19.40;84.40;;;;;;5009127;28;20052;-68
2022/10/21 12:36:15;;;;;;;7.50;4.95;;;19.40;83.60;;;;;;5007991;28;20026;-67
2022/10/21 12:38:57;;;;;;;8.80;5.30;;;19.50;82.60;;;;;;5008063;28;20124;-67
2022/10/21 12:41:22;;;;;;;4.47;3.58;;;19.50;82.20;;;;;;5007817;28;20026;-66
2022/10/21 12:44:00;;;;;;;4.90;4.10;;;19.60;82.30;;;;;;5005975;28;20026;-66
2022/10/21 12:46:50;;;;;;;7.07;4.15;;;19.60;82.20;;;;;;5007867;28;20563;-66
2022/10/21 12:49:19;;;;;;;5.57;3.90;;;19.70;81.40;;;;;;5008392;28;20033;-66
2022/10/21 12:51:48;;;;;;;5.75;3.72;;;19.70;81.00;;;;;;5007276;28;20037;-67
2022/10/21 12:54:18;;;;;;;6.68;4.60;;;19.80;80.70;;;;;;5006659;28;20018;-67
2022/10/21 12:56:50;;;;;;;4.20;3.17;;;19.80;79.90;;;;;;5009328;28;20036;-67
2022/10/21 12:59:36;;;;;;;4.20;2.60;;;19.80;80.30;;;;;;5011116;28;20033;-68
2022/10/21 13:02:24;;;;;;;6.63;3.50;;;19.90;80.60;;;;;;5010613;28;20097;-67